Flight Track Log - Related Links

Times and Time Zones

All times are in EDT time to prevent confusion due to time zone crossing. See the N4303W flight status page for this flight to view local times or setup timezone preferences in your user account.

Time Position Orientation Groundspeed Altitude Reporting Facility
EDT Latitude Longitude Course Direction KTS MPH feet Rate Location/Type
Sat 10:29:00 AM 45.1877 -85.0629 211° Southwest  Level FlightAware Approximate
Sat 10:30:00 AM 45.1521 -85.0979 215° Southwest  Level FlightAware Approximate
Sat 10:31:00 AM 45.1156 -85.1309 209° Southwest  Level FlightAware Approximate
Sat 10:32:00 AM 45.0779 -85.1610 209° Southwest  Level FlightAware Approximate
Sat 10:33:00 AM 45.0408 -85.1926 215° Southwest  Level FlightAware Approximate
Sat 10:34:00 AM 45.0050 -85.2271 212° Southwest  Level FlightAware Approximate
Sat 10:35:00 AM 44.9683 -85.2597 212° Southwest  Level FlightAware Approximate
Sat 10:36:00 AM 44.9317 -85.2923 212° Southwest  Level FlightAware Approximate
Sat 10:37:00 AM 44.8950 -85.3249 212° Southwest  Level FlightAware Approximate
Sat 10:38:00 AM 44.8703 -85.2755 125° Southeast  Level Estimated
Sat 10:39:00 AM 44.8456 -85.2262 125° Southeast  Level Estimated
Sat 10:40:00 AM 44.8210 -85.1769 125° Southeast  Level Estimated
Sat 10:41:00 AM 44.7962 -85.1277 125° Southeast  Level Estimated
Sat 10:42:00 AM 44.7715 -85.0786 125° Southeast  Level Estimated
Sat 10:43:00 AM 44.7468 -85.0294 125° Southeast  Level Estimated
Sat 10:44:00 AM 44.7220 -84.9803 125° Southeast  Level Estimated
Sat 10:45:00 AM 44.6972 -84.9313 125° Southeast  Level Estimated
Sat 10:45:17 AM 45.3717 -84.8808 126° Southeast 92 106 4,100  Level Minneapolis Center
Sat 10:46:00 AM 44.6724 -84.8823 125° Southeast  Level Estimated
Sat 10:46:19 AM 45.3514 -84.8544 138° Southeast 96 110 5,000  Level Minneapolis Center
Sat 10:47:00 AM 44.6475 -84.8333 125° Southeast  Level Estimated
Sat 10:47:21 AM 45.3272 -84.8208 136° Southeast 96 110 6,200  Level Minneapolis Center
Sat 10:48:00 AM 44.6227 -84.7844 126° Southeast  Level Estimated
Sat 10:48:24 AM 45.3047 -84.7925 138° Southeast 101 116 7,100  Level Minneapolis Center
Sat 10:49:00 AM 44.5978 -84.7355 126° Southeast  Level Estimated
Sat 10:49:26 AM 45.2836 -84.7631 136° Southeast 104 120 7,900  Level Minneapolis Center
Sat 10:50:00 AM 44.5729 -84.6867 126° Southeast  Level Estimated
Sat 10:50:28 AM 45.2614 -84.7303 134° Southeast 105 121 8,900  Level Minneapolis Center
Sat 10:51:30 AM 45.2353 -84.6964 138° Southeast 126 145 9,100 97 Climbing Minneapolis Center
Sat 10:52:32 AM 45.2031 -84.6525 136° Southeast 144 166 9,100  Level Minneapolis Center
Sat 10:53:34 AM 45.1725 -84.6086 135° Southeast 153 176 9,100  Level Minneapolis Center
Sat 10:54:36 AM 45.1369 -84.5608 137° Southeast 160 184 9,100  Level Minneapolis Center
Sat 10:55:38 AM 45.1042 -84.5161 136° Southeast 162 186 9,100  Level Minneapolis Center
Sat 10:56:40 AM 45.0689 -84.4678 136° Southeast 163 188 9,100  Level Minneapolis Center
Sat 10:57:43 AM 45.0347 -84.4194 135° Southeast 163 188 9,100  Level Minneapolis Center
Sat 10:58:45 AM 44.9939 -84.3967 158° South 163 188 9,100  Level Minneapolis Center
Sat 10:59:47 AM 44.9467 -84.3836 169° South 162 186 9,100  Level Minneapolis Center
Sat 11:00:49 AM 44.9042 -84.3642 162° South 162 186 9,100  Level Minneapolis Center
Sat 11:01:51 AM 44.8583 -84.3422 161° South 162 186 9,100  Level Minneapolis Center
Sat 11:02:53 AM 44.8158 -84.3247 164° South 162 186 9,100  Level Minneapolis Center
Sat 11:03:55 AM 44.7700 -84.3069 165° South 162 186 9,100  Level Minneapolis Center
Sat 11:04:57 AM 44.7258 -84.2897 165° South 158 182 9,100  Level Minneapolis Center
Sat 11:05:59 AM 44.6853 -84.2733 164° South 156 180 9,100  Level Minneapolis Center
Sat 11:07:02 AM 44.6408 -84.2617 169° South 154 177 9,100  Level Minneapolis Center
Sat 11:08:04 AM 44.5986 -84.2533 172° South 154 177 9,100  Level Minneapolis Center
Sat 11:09:06 AM 44.5522 -84.2483 176° South 154 177 9,100  Level Minneapolis Center
Sat 11:10:08 AM 44.5114 -84.2403 172° South 154 177 9,100  Level Minneapolis Center
Sat 11:11:10 AM 44.4661 -84.2325 173° South 154 177 9,100  Level Minneapolis Center
Sat 11:12:12 AM 44.4247 -84.2256 173° South 154 177 9,100  Level Minneapolis Center
Sat 11:13:14 AM 44.3783 -84.2175 173° South 153 176 9,100  Level Minneapolis Center
Sat 11:14:16 AM 44.3319 -84.2094 173° South 155 178 9,100  Level Minneapolis Center
Sat 11:15:18 AM 44.2892 -84.2017 173° South 155 178 9,100  Level Minneapolis Center
Sat 11:16:20 AM 44.2428 -84.1931 172° South 156 180 9,100 -48 Level Minneapolis Center
Sat 11:17:22 AM 44.1997 -84.1861 173° South 158 182 9,000 -48 Descending Minneapolis Center
Sat 11:18:26 AM 44.1544 -84.1786 173° South 156 180 9,000 48 Level Minneapolis Center
Sat 11:19:28 AM 44.1081 -84.1700 172° South 156 180 9,100 48 Climbing Minneapolis Center
Sat 11:20:30 AM 44.0656 -84.1597 170° South 156 180 9,100  Level Minneapolis Center
Sat 11:21:32 AM 44.0211 -84.1533 174° South 154 177 9,100  Level Minneapolis Center
Sat 11:22:34 AM 43.9789 -84.1453 172° South 154 177 9,100  Level Minneapolis Center
Sat 11:23:36 AM 43.9469 -84.1211 151° Southeast 155 178 9,100  Level Minneapolis Center
Sat 11:24:38 AM 43.9253 -84.0644 118° Southeast 163 188 9,100 -48 Level Minneapolis Center
Sat 11:25:40 AM 43.8981 -84.0078 124° Southeast 163 188 9,000 -46 Descending Minneapolis Center
Sat 11:26:48 AM 43.8669 -83.9461 125° Southeast 162 186 9,000  Level Cleveland Center
Sat 11:27:50 AM 43.8406 -83.8922 124° Southeast 162 186 9,000  Level Cleveland Center
Sat 11:28:51 AM 43.8175 -83.8417 122° Southeast 162 186 9,000  Level Cleveland Center
Sat 11:29:53 AM 43.7917 -83.7894 124° Southeast 160 184 9,000  Level Cleveland Center
Sat 11:30:54 AM 43.7661 -83.7369 124° Southeast 159 183 9,000  Level Cleveland Center
Sat 11:31:55 AM 43.7422 -83.6886 124° Southeast 158 182 9,000 49 Level Cleveland Center
Sat 11:32:57 AM 43.7167 -83.6369 124° Southeast 158 182 9,100  Climbing Cleveland Center
Sat 11:33:58 AM 43.6919 -83.5872 125° Southeast 158 182 9,000 -49 Descending Cleveland Center
Sat 11:34:59 AM 43.6656 -83.5333 124° Southeast 158 182 9,000  Level Cleveland Center
Sat 11:36:01 AM 43.6411 -83.4833 124° Southeast 158 182 9,000  Level Cleveland Center
Sat 11:37:02 AM 43.6178 -83.4344 123° Southeast 158 182 9,000  Level Cleveland Center
Sat 11:38:03 AM 43.5906 -83.3803 125° Southeast 158 182 9,000  Level Cleveland Center
Sat 11:39:05 AM 43.5658 -83.3306 124° Southeast 158 182 9,000  Level Cleveland Center
Sat 11:40:06 AM 43.5389 -83.2761 124° Southeast 158 182 9,000  Level Cleveland Center
Sat 11:41:08 AM 43.5136 -83.2239 124° Southeast 159 183 9,000  Level Cleveland Center
Sat 11:42:09 AM 43.4900 -83.1769 125° Southeast 159 183 9,000  Level Cleveland Center
Sat 11:43:11 AM 43.4631 -83.1239 125° Southeast 158 182 9,000  Level Cleveland Center
Sat 11:44:12 AM 43.4386 -83.0742 124° Southeast 158 182 9,000  Level Cleveland Center
Sat 11:45:14 AM 43.4122 -83.0219 125° Southeast 156 180 9,000  Level Cleveland Center
Sat 11:46:15 AM 43.3878 -82.9731 125° Southeast 156 180 9,000 327 Level Cleveland Center
Sat 11:47:04 AM 43.3500 -82.9333 143° Southeast 150 173 9,600 881 Climbing Toronto Center
Sat 11:48:04 AM 43.3333 -82.8833 115° Southeast 120 138 10,600 750 Climbing Toronto Center
Sat 11:49:04 AM 43.3167 -82.8667 144° Southeast 130 150 11,100 250 Climbing Toronto Center
Sat 11:50:04 AM 43.2833 -82.8167 132° Southeast 140 161 11,100  Level Toronto Center
Sat 11:51:04 AM 43.2667 -82.7500 109° East 150 173 11,100  Level Toronto Center
Sat 11:52:04 AM 43.2500 -82.7000 115° Southeast 160 184 11,100 -50 Level Toronto Center
Sat 11:53:04 AM 43.2167 -82.6500 132° Southeast 150 173 11,000  Descending Toronto Center
Sat 11:54:04 AM 43.1667 -82.6500 180° South 150 173 11,100 50 Climbing Toronto Center
Sat 11:55:04 AM 43.1500 -82.6333 144° Southeast 150 173 11,100  Level Toronto Center
Sat 11:56:04 AM 43.1167 -82.5833 132° Southeast 150 173 11,100  Level Toronto Center
Sat 11:57:04 AM 43.0833 -82.5500 144° Southeast 150 173 11,100 -50 Level Toronto Center
Sat 11:58:04 AM 43.0500 -82.5000 132° Southeast 150 173 11,000 -200 Descending Toronto Center
Sat 11:59:04 AM 43.0167 -82.4833 160° South 150 173 10,700 -400 Descending Toronto Center
Sat 12:00:04 PM 42.9833 -82.4333 132° Southeast 150 173 10,200 -450 Descending Toronto Center
Sat 12:01:04 PM 42.9500 -82.4167 160° South 150 173 9,800 -400 Descending Toronto Center
Sat 12:02:04 PM 42.9167 -82.3667 132° Southeast 150 173 9,400 -350 Descending Toronto Center
Sat 12:03:04 PM 42.8833 -82.3333 144° Southeast 150 173 9,100 -186 Descending Toronto Center
Sat 12:03:41 PM 42.8731 -82.3267 155° Southeast 152 175 9,100  Level Cleveland Center
Sat 12:03:54 PM 42.8669 -82.3197 140° Southeast 152 175 9,100 -158 Level Cleveland Center
Sat 12:04:19 PM 42.8511 -82.3019 141° Southeast 147 169 9,000 -98 Descending Cleveland Center
Sat 12:04:55 PM 42.8367 -82.2828 136° Southeast 151 174 9,000  Level Cleveland Center
Sat 12:05:20 PM 42.8203 -82.2636 139° Southeast 153 176 9,000  Level Cleveland Center
Sat 12:05:57 PM 42.8033 -82.2458 142° Southeast 150 173 9,000  Level Cleveland Center
Sat 12:06:20 PM 42.7853 -82.2253 140° Southeast 155 178 9,000  Level Cleveland Center
Sat 12:06:58 PM 42.7700 -82.2083 141° Southeast 151 174 9,000  Level Cleveland Center
Sat 12:07:21 PM 42.7522 -82.1925 147° Southeast 155 178 9,000  Level Cleveland Center
Sat 12:08:00 PM 42.7356 -82.1744 141° Southeast 152 175 9,000  Level Cleveland Center
Sat 12:08:27 PM 42.7131 -82.1533 145° Southeast 154 177 9,000  Level Cleveland Center
Sat 12:09:01 PM 42.6933 -82.1319 141° Southeast 153 176 9,000  Level Cleveland Center
Sat 12:09:28 PM 42.6778 -82.1150 141° Southeast 155 178 9,000  Level Cleveland Center
Sat 12:10:03 PM 42.6625 -82.0928 133° Southeast 153 176 9,000  Level Cleveland Center
Sat 12:10:29 PM 42.6581 -82.0672 103° East 158 182 9,000  Level Cleveland Center
Sat 12:11:05 PM 42.6494 -82.0350 110° East 158 182 9,000  Level Cleveland Center
Sat 12:11:29 PM 42.6411 -82.0083 113° Southeast 158 182 9,000  Level Cleveland Center
Sat 12:12:06 PM 42.6350 -81.9803 106° East 157 181 9,000  Level Cleveland Center
Sat 12:13:08 PM 42.6214 -81.9244 108° East 157 181 9,000  Level Cleveland Center
Sat 12:14:10 PM 42.6050 -81.8686 112° Southeast 157 181 9,000  Level Cleveland Center
Sat 12:15:11 PM 42.5875 -81.8128 113° Southeast 158 182 9,000  Level Cleveland Center
Sat 12:16:13 PM 42.5700 -81.7481 110° East 158 182 9,000  Level Cleveland Center
Sat 12:17:15 PM 42.5536 -81.6933 112° Southeast 158 182 9,000  Level Cleveland Center
Sat 12:18:16 PM 42.5361 -81.6383 113° Southeast 158 182 9,000  Level Cleveland Center
Sat 12:19:18 PM 42.5211 -81.5819 110° East 158 182 9,000  Level Cleveland Center
Sat 12:20:20 PM 42.5033 -81.5267 114° Southeast 158 182 9,000  Level Cleveland Center
Sat 12:21:22 PM 42.4861 -81.4714 113° Southeast 158 182 9,000 -49 Level Cleveland Center
Sat 12:22:23 PM 42.4728 -81.4147 108° East 158 182 8,900  Descending Cleveland Center
Sat 12:23:25 PM 42.4597 -81.3453 104° East 158 182 9,000 48 Climbing Cleveland Center
Sat 12:24:27 PM 42.4408 -81.2892 115° Southeast 160 184 9,000  Level Cleveland Center
Sat 12:25:29 PM 42.4239 -81.2353 113° Southeast 160 184 9,000 48 Level Cleveland Center
Sat 12:26:31 PM 42.4081 -81.1803 111° Southeast 159 183 9,100  Climbing Cleveland Center
Sat 12:27:33 PM 42.3919 -81.1244 111° Southeast 158 182 9,000 -49 Descending Cleveland Center
Sat 12:28:34 PM 42.3769 -81.0669 109° East 159 183 9,000 49 Level Cleveland Center
Sat 12:29:36 PM 42.3647 -81.0094 106° East 159 183 9,100  Climbing Cleveland Center
Sat 12:30:38 PM 42.3494 -80.9522 110° East 159 183 9,000  Descending Cleveland Center
Sat 12:31:40 PM 42.3314 -80.8853 110° East 159 183 9,100 48 Climbing Cleveland Center
Sat 12:32:42 PM 42.3167 -80.8286 109° East 160 184 9,100 -48 Level Cleveland Center
Sat 12:33:44 PM 42.3017 -80.7700 109° East 160 184 9,000  Descending Cleveland Center
Sat 12:34:46 PM 42.2850 -80.7144 112° Southeast 160 184 9,100  Climbing Cleveland Center
Sat 12:35:48 PM 42.2703 -80.6569 109° East 160 184 9,000  Descending Cleveland Center
Sat 12:36:50 PM 42.2536 -80.5997 111° Southeast 160 184 9,100 48 Climbing Cleveland Center
Sat 12:37:52 PM 42.2378 -80.5431 111° Southeast 161 185 9,100  Level Cleveland Center
Sat 12:38:54 PM 42.2186 -80.4756 111° Southeast 161 185 9,100  Level Cleveland Center
Sat 12:39:56 PM 42.2039 -80.4203 110° East 160 184 9,100  Level Cleveland Center
Sat 12:40:58 PM 42.1878 -80.3628 111° Southeast 160 184 9,100  Level Cleveland Center
Sat 12:42:00 PM 42.1706 -80.3036 111° Southeast 161 185 9,100  Level Cleveland Center
Sat 12:43:03 PM 42.1550 -80.2436 109° East 161 185 9,100  Level Cleveland Center
Sat 12:44:05 PM 42.1375 -80.1842 112° Southeast 164 189 9,100  Level Cleveland Center
Sat 12:45:07 PM 42.1214 -80.1244 110° East 164 189 9,100  Level Cleveland Center
Sat 12:46:09 PM 42.1036 -80.0656 112° Southeast 164 189 9,100  Level Cleveland Center
Sat 12:47:11 PM 42.0878 -80.0092 111° Southeast 165 190 9,100  Level Cleveland Center
Sat 12:48:13 PM 42.0697 -79.9483 112° Southeast 167 192 9,100  Level Cleveland Center
Sat 12:49:15 PM 42.0525 -79.8886 111° Southeast 167 192 9,100  Level Cleveland Center
Sat 12:50:17 PM 42.0347 -79.8269 111° Southeast 168 193 9,100  Level Cleveland Center
Sat 12:51:19 PM 42.0181 -79.7667 110° East 168 193 9,100  Level Cleveland Center
Sat 12:52:21 PM 42.0014 -79.7053 110° East 167 192 9,100  Level Cleveland Center
Sat 12:53:23 PM 41.9831 -79.6458 113° Southeast 167 192 9,100  Level Cleveland Center
Sat 12:54:25 PM 41.9658 -79.5856 111° Southeast 167 192 9,100  Level Cleveland Center
Sat 12:55:27 PM 41.9492 -79.5297 112° Southeast 168 193 9,100  Level Cleveland Center
Sat 12:56:29 PM 41.9325 -79.4717 111° Southeast 163 188 9,100 -48 Level Cleveland Center
Sat 12:57:31 PM 41.9178 -79.4219 112° Southeast 162 186 9,000 -48 Descending Cleveland Center
Sat 12:58:33 PM 41.8967 -79.3575 114° Southeast 161 185 9,000  Level Cleveland Center
Sat 12:59:35 PM 41.8800 -79.3025 112° Southeast 160 184 9,000 48 Level Cleveland Center
Sat 01:00:37 PM 41.8647 -79.2400 108° East 162 186 9,100 97 Climbing Cleveland Center
Sat 01:01:39 PM 41.8531 -79.1778 104° East 168 193 9,200 48 Climbing Cleveland Center
Sat 01:02:41 PM 41.8350 -79.1253 115° Southeast 162 186 9,200  Level Cleveland Center
Sat 01:03:43 PM 41.8172 -79.0661 112° Southeast 163 188 9,200  Level Cleveland Center
Sat 01:04:45 PM 41.7975 -79.0106 115° Southeast 162 186 9,200 -48 Level Cleveland Center
Sat 01:05:47 PM 41.7794 -78.9558 114° Southeast 158 182 9,100 -48 Descending Cleveland Center
Sat 01:06:49 PM 41.7628 -78.9033 113° Southeast 159 183 9,100  Level Cleveland Center
Sat 01:07:51 PM 41.7469 -78.8475 111° Southeast 159 183 9,100 48 Level Cleveland Center
Sat 01:08:53 PM 41.7289 -78.7803 110° East 159 183 9,200 48 Climbing Cleveland Center
Sat 01:09:55 PM 41.7108 -78.7258 114° Southeast 159 183 9,200 -48 Level Cleveland Center
Sat 01:10:57 PM 41.6936 -78.6714 113° Southeast 160 184 9,100  Descending Cleveland Center
Sat 01:11:59 PM 41.6756 -78.6164 114° Southeast 160 184 9,200 48 Climbing Cleveland Center
Sat 01:13:01 PM 41.6606 -78.5600 110° East 160 184 9,200  Level Cleveland Center
Sat 01:14:03 PM 41.6442 -78.5028 111° Southeast 160 184 9,200 -48 Level Cleveland Center
Sat 01:15:05 PM 41.6242 -78.4364 112° Southeast 160 184 9,100  Descending Cleveland Center
Sat 01:16:07 PM 41.6075 -78.3817 112° Southeast 161 185 9,200  Climbing Cleveland Center
Sat 01:17:09 PM 41.5906 -78.3267 112° Southeast 160 184 9,100 -48 Descending Cleveland Center
Sat 01:18:11 PM 41.5744 -78.2731 112° Southeast 160 184 9,100 48 Level Cleveland Center
Sat 01:19:13 PM 41.5575 -78.2158 112° Southeast 161 185 9,200 48 Climbing Cleveland Center
Sat 01:20:15 PM 41.5364 -78.1511 114° Southeast 161 185 9,200 -48 Level Cleveland Center
Sat 01:21:17 PM 41.5211 -78.0950 110° East 161 185 9,100 -48 Descending Cleveland Center
Sat 01:22:19 PM 41.5036 -78.0406 113° Southeast 161 185 9,100 48 Level Cleveland Center
Sat 01:23:21 PM 41.4867 -77.9847 112° Southeast 161 185 9,200  Climbing Cleveland Center
Sat 01:24:23 PM 41.4708 -77.9275 110° East 162 186 9,100 -48 Descending Cleveland Center
Sat 01:25:25 PM 41.4575 -77.8706 107° East 162 186 9,100  Level Cleveland Center
Sat 01:26:27 PM 41.4353 -77.8044 114° Southeast 162 186 9,100  Level Cleveland Center
Sat 01:27:29 PM 41.4150 -77.7522 117° Southeast 162 186 9,100  Level Cleveland Center
Sat 01:28:31 PM 41.3986 -77.6936 110° East 166 191 9,100 48 Level Cleveland Center
Sat 01:29:33 PM 41.3864 -77.6358 106° East 165 190 9,200 48 Climbing Cleveland Center
Sat 01:30:35 PM 41.3706 -77.5792 110° East 165 190 9,200  Level Cleveland Center
Sat 01:31:37 PM 41.3481 -77.5147 115° Southeast 164 189 9,200  Level Cleveland Center
Sat 01:32:39 PM 41.3367 -77.4556 104° East 163 188 9,200 -48 Level Cleveland Center
Sat 01:33:41 PM 41.3158 -77.4031 118° Southeast 164 189 9,100  Descending Cleveland Center
Sat 01:34:43 PM 41.2914 -77.3522 123° Southeast 164 189 9,200  Climbing Cleveland Center
Sat 01:35:38 PM 41.2711 -77.2969 116° Southeast 167 192 9,100 -53 Descending New York Center
Sat 01:36:36 PM 41.2517 -77.2369 113° Southeast 167 192 9,100  Level New York Center
Sat 01:37:36 PM 41.2339 -77.1800 113° Southeast 167 192 9,100  Level New York Center
Sat 01:38:38 PM 41.2161 -77.1233 113° Southeast 167 192 9,100  Level New York Center
Sat 01:39:36 PM 41.1961 -77.0661 115° Southeast 167 192 9,100  Level New York Center
Sat 01:40:40 PM 41.1783 -77.0094 113° Southeast 167 192 9,100  Level New York Center
Sat 01:42:38 PM 41.1403 -76.8983 114° Southeast 167 192 9,100  Level New York Center
Sat 01:43:39 PM 41.1225 -76.8417 113° Southeast 167 192 9,100  Level New York Center
Sat 01:44:38 PM 41.1108 -76.7828 105° East 167 192 9,100  Level New York Center
Sat 01:45:38 PM 41.0994 -76.7211 104° East 162 186 9,100  Level New York Center
Sat 01:46:38 PM 41.0944 -76.6547 96° East 167 192 9,100  Level New York Center
Sat 01:47:38 PM 41.0803 -76.6011 109° East 180 207 9,100 -151 Level New York Center
Sat 01:48:37 PM 41.0603 -76.5444 115° Southeast 175 201 8,800 -400 Descending New York Center
Sat 01:49:38 PM 41.0383 -76.4792 114° Southeast 175 201 8,300 -446 Descending New York Center
Sat 01:50:38 PM 41.0181 -76.4225 115° Southeast 170 196 7,900 -458 Descending New York Center
Sat 01:51:36 PM 41.0000 -76.3661 113° Southeast 170 196 7,400 -403 Descending New York Center
Sat 01:52:37 PM 40.9817 -76.3150 115° Southeast 170 196 7,100 -148 Descending New York Center
Sat 01:53:38 PM 40.9589 -76.2639 121° Southeast 153 176 7,100 64 Level New York Center
Sat 01:54:11 PM 40.9456 -76.2381 124° Southeast 157 181 7,200  Climbing New York Center
Sat 01:54:36 PM 40.9358 -76.2206 126° Southeast 153 176 7,100 -261 Descending New York Center
Sat 01:54:57 PM 40.9267 -76.1981 118° Southeast 161 185 7,000 -97 Descending New York Center
Sat 01:55:38 PM 40.9156 -76.1669 115° Southeast 159 183 7,000 107 Level New York Center
Sat 01:55:53 PM 40.9078 -76.1525 125° Southeast 165 190 7,100 103 Climbing New York Center
Sat 01:56:36 PM 40.8994 -76.1053 103° East 159 183 7,100  Level New York Center
Sat 01:56:58 PM 40.8942 -76.0856 109° East 165 190 7,100  Level New York Center
Sat 01:57:38 PM 40.8833 -76.0489 111° Southeast 159 183 7,100  Level New York Center
Sat 01:58:36 PM 40.8606 -76.0006 122° Southeast 159 183 7,100  Level New York Center
Sat 01:58:48 PM 40.8567 -75.9922 122° Southeast 158 182 7,100 -381 Level New York Center
Sat 01:59:39 PM 40.8378 -75.9494 120° Southeast 159 183 6,700 -455 Descending New York Center
Sat 01:59:54 PM 40.8300 -75.9325 121° Southeast 162 186 6,600 -203 Descending New York Center
Sat 02:00:38 PM 40.8103 -75.9064 135° Southeast 159 183 6,500 -265 Descending New York Center
Sat 02:01:02 PM 40.7919 -75.8994 164° South 152 175 6,300 -400 Descending New York Center
Sat 02:01:38 PM 40.7717 -75.8842 150° Southeast 147 169 6,100 -590 Descending New York Center
Sat 02:02:03 PM 40.7533 -75.8772 164° South 157 181 5,700 -517 Descending New York Center
Sat 02:02:36 PM 40.7289 -75.8619 155° Southeast 160 184 5,600 -109 Descending New York Center
Sat 02:02:58 PM 40.7167 -75.8581 166° South 160 184 5,600 -393 Level New York Center
Sat 02:03:37 PM 40.6944 -75.8428 152° Southeast 160 184 5,200 -627 Descending New York Center
Sat 02:04:05 PM 40.6742 -75.8278 151° Southeast 161 185 4,900 -492 Descending New York Center
Sat 02:04:38 PM 40.6606 -75.8047 128° Southeast 160 184 4,700 -621 Descending New York Center
Sat 02:05:03 PM 40.6406 -75.7869 146° Southeast 163 188 4,300 -600 Descending New York Center
Sat 02:05:38 PM 40.6228 -75.7636 135° Southeast 165 190 4,100 -190 Descending New York Center
Sat 02:06:06 PM 40.6025 -75.7486 151° Southeast 160 184 4,100 -103 Level New York Center
Sat 02:06:36 PM 40.5889 -75.7283 131° Southeast 159 183 4,000 -375 Descending New York Center
Sat 02:07:10 PM 40.5706 -75.7133 148° Southeast 140 161 3,700 -600 Descending New York Center
Sat 02:07:36 PM 40.5608 -75.6992 132° Southeast 148 170 3,400 -643 Descending New York Center
Sat 02:08:06 PM 40.5556 -75.6742 106° East 143 165 3,100 -300 Descending New York Center
Sat 02:08:36 PM 40.5586 -75.6525 79° East 128 147 3,100  Level New York Center
Sat 02:08:54 PM 40.5614 -75.6336 79° East 132 152 3,100 -98 Level New York Center
Sat 02:09:37 PM 40.5669 -75.6011 77° East 122 140 3,000 -197 Descending New York Center
Sat 02:09:55 PM 40.5672 -75.5931 87° East 117 135 2,900 -590 Descending New York Center
Sat 02:10:38 PM 40.5789 -75.5639 62° Northeast 122 140 2,400 -448 Descending New York Center
Sat 02:11:02 PM 40.5833 -75.5558 54° Northeast 102 117 2,400 -295 Level New York Center
Sat 02:11:39 PM 40.5947 -75.5347 55° Northeast 109 125 2,100 -545 Descending New York Center
Sat 02:11:57 PM 40.6011 -75.5269 43° Northeast 101 116 1,900 -310 Descending New York Center
Sat 02:12:37 PM 40.6106 -75.5003 65° Northeast 104 120 1,800 -590 Descending New York Center
Sat 02:12:58 PM 40.6147 -75.5006 357° North 98 113 1,300 -732 Descending New York Center
Sat 02:13:59 PM 40.6347 -75.4719 47° Northeast 95 109 800 -492 Descending New York Center

Login

Don't have an account? Register now (free) for customized features, flight alerts, and more!